sensor_id;sensor_type;location;lat;lon;timestamp;temperature;humidity
29571;DHT22;16814;52.118;11.436;2022-12-07T00:01:24;1.00;99.90
29571;DHT22;16814;52.118;11.436;2022-12-07T00:03:52;1.00;99.90
29571;DHT22;16814;52.118;11.436;2022-12-07T00:06:19;1.00;99.90
29571;DHT22;16814;52.118;11.436;2022-12-07T00:08:45;1.10;99.90
29571;DHT22;16814;52.118;11.436;2022-12-07T00:11:17;1.00;99.90
29571;DHT22;16814;52.118;11.436;2022-12-07T00:13:43;1.00;99.90
29571;DHT22;16814;52.118;11.436;2022-12-07T00:16:17;0.90;99.90
29571;DHT22;16814;52.118;11.436;2022-12-07T00:18:44;0.90;99.90
29571;DHT22;16814;52.118;11.436;2022-12-07T00:21:21;0.90;99.90
29571;DHT22;16814;52.118;11.436;2022-12-07T00:23:49;1.00;99.90
29571;DHT22;16814;52.118;11.436;2022-12-07T00:26:23;0.90;99.90
29571;DHT22;16814;52.118;11.436;2022-12-07T00:28:59;0.90;99.90
29571;DHT22;16814;52.118;11.436;2022-12-07T00:31:28;0.80;99.90
29571;DHT22;16814;52.118;11.436;2022-12-07T00:33:56;0.90;99.90
29571;DHT22;16814;52.118;11.436;2022-12-07T00:36:23;0.90;99.90
29571;DHT22;16814;52.118;11.436;2022-12-07T00:38:49;1.10;99.90
29571;DHT22;16814;52.118;11.436;2022-12-07T00:41:19;1.20;99.90
29571;DHT22;16814;52.118;11.436;2022-12-07T00:43:47;1.20;99.90
29571;DHT22;16814;52.118;11.436;2022-12-07T00:46:14;1.20;99.90
29571;DHT22;16814;52.118;11.436;2022-12-07T00:48:40;1.10;99.90
29571;DHT22;16814;52.118;11.436;2022-12-07T00:51:06;1.20;99.90
29571;DHT22;16814;52.118;11.436;2022-12-07T00:53:36;1.30;99.90
29571;DHT22;16814;52.118;11.436;2022-12-07T00:56:26;1.20;99.90
29571;DHT22;16814;52.118;11.436;2022-12-07T00:58:56;1.30;99.90
29571;DHT22;16814;52.118;11.436;2022-12-07T01:01:23;1.30;99.90
29571;DHT22;16814;52.118;11.436;2022-12-07T01:03:49;1.40;99.90
29571;DHT22;16814;52.118;11.436;2022-12-07T01:06:22;1.40;99.90
29571;DHT22;16814;52.118;11.436;2022-12-07T01:08:48;1.30;99.90
29571;DHT22;16814;52.118;11.436;2022-12-07T01:11:17;1.20;99.90
29571;DHT22;16814;52.118;11.436;2022-12-07T01:13:43;1.30;99.90
29571;DHT22;16814;52.118;11.436;2022-12-07T01:16:14;1.10;99.90
29571;DHT22;16814;52.118;11.436;2022-12-07T01:18:41;1.20;99.90
29571;DHT22;16814;52.118;11.436;2022-12-07T01:21:12;1.20;99.90
29571;DHT22;16814;52.118;11.436;2022-12-07T01:23:39;1.30;99.90
29571;DHT22;16814;52.118;11.436;2022-12-07T01:26:07;1.40;99.90
29571;DHT22;16814;52.118;11.436;2022-12-07T01:28:33;1.40;99.90
29571;DHT22;16814;52.118;11.436;2022-12-07T01:31:02;1.40;99.90
29571;DHT22;16814;52.118;11.436;2022-12-07T01:33:29;1.40;99.90
29571;DHT22;16814;52.118;11.436;2022-12-07T01:38:42;1.50;99.90
29571;DHT22;16814;52.118;11.436;2022-12-07T01:41:08;1.50;99.90
29571;DHT22;16814;52.118;11.436;2022-12-07T01:43:35;1.50;99.90
29571;DHT22;16814;52.118;11.436;2022-12-07T01:46:03;1.50;99.90
29571;DHT22;16814;52.118;11.436;2022-12-07T01:48:38;1.60;99.90
29571;DHT22;16814;52.118;11.436;2022-12-07T01:51:09;1.60;99.90
29571;DHT22;16814;52.118;11.436;2022-12-07T01:53:39;1.70;99.90
29571;DHT22;16814;52.118;11.436;2022-12-07T01:56:09;1.80;99.90
29571;DHT22;16814;52.118;11.436;2022-12-07T01:58:36;1.80;99.90
29571;DHT22;16814;52.118;11.436;2022-12-07T02:01:02;1.90;99.90
29571;DHT22;16814;52.118;11.436;2022-12-07T02:03:39;1.90;99.90
29571;DHT22;16814;52.118;11.436;2022-12-07T02:06:06;2.10;99.90
29571;DHT22;16814;52.118;11.436;2022-12-07T02:08:32;2.00;99.90
29571;DHT22;16814;52.118;11.436;2022-12-07T02:10:57;2.10;99.90
29571;DHT22;16814;52.118;11.436;2022-12-07T02:13:26;2.10;99.90
29571;DHT22;16814;52.118;11.436;2022-12-07T02:18:53;2.10;99.90
29571;DHT22;16814;52.118;11.436;2022-12-07T02:29:54;2.10;99.90
29571;DHT22;16814;52.118;11.436;2022-12-07T02:32:44;2.20;99.90
29571;DHT22;16814;52.118;11.436;2022-12-07T02:35:19;2.30;99.90
29571;DHT22;16814;52.118;11.436;2022-12-07T02:37:53;2.30;99.90
29571;DHT22;16814;52.118;11.436;2022-12-07T02:40:30;2.30;99.90
29571;DHT22;16814;52.118;11.436;2022-12-07T02:43:21;2.40;99.90
29571;DHT22;16814;52.118;11.436;2022-12-07T02:45:50;2.60;99.90
29571;DHT22;16814;52.118;11.436;2022-12-07T02:48:17;2.40;99.90
29571;DHT22;16814;52.118;11.436;2022-12-07T02:50:48;2.40;99.90
29571;DHT22;16814;52.118;11.436;2022-12-07T02:53:33;2.40;99.90
29571;DHT22;16814;52.118;11.436;2022-12-07T02:56:21;2.40;99.90
29571;DHT22;16814;52.118;11.436;2022-12-07T03:04:56;2.50;99.90
29571;DHT22;16814;52.118;11.436;2022-12-07T03:07:33;2.60;99.90
29571;DHT22;16814;52.118;11.436;2022-12-07T03:16:02;2.60;99.90
29571;DHT22;16814;52.118;11.436;2022-12-07T03:18:31;2.60;99.90
29571;DHT22;16814;52.118;11.436;2022-12-07T03:21:06;2.70;99.90
29571;DHT22;16814;52.118;11.436;2022-12-07T03:23:35;2.70;99.90
29571;DHT22;16814;52.118;11.436;2022-12-07T03:26:04;2.70;99.90
29571;DHT22;16814;52.118;11.436;2022-12-07T03:28:35;2.70;99.90
29571;DHT22;16814;52.118;11.436;2022-12-07T03:31:25;2.70;99.90
29571;DHT22;16814;52.118;11.436;2022-12-07T03:34:11;2.70;99.90
29571;DHT22;16814;52.118;11.436;2022-12-07T03:36:47;2.70;99.90
29571;DHT22;16814;52.118;11.436;2022-12-07T03:39:51;2.70;99.90
29571;DHT22;16814;52.118;11.436;2022-12-07T03:42:22;2.70;99.90
29571;DHT22;16814;52.118;11.436;2022-12-07T03:44:50;2.80;99.90
29571;DHT22;16814;52.118;11.436;2022-12-07T03:47:35;3.30;99.90
29571;DHT22;16814;52.118;11.436;2022-12-07T03:53:04;2.80;99.90
29571;DHT22;16814;52.118;11.436;2022-12-07T03:55:34;2.80;99.90
29571;DHT22;16814;52.118;11.436;2022-12-07T03:58:07;2.80;99.90
29571;DHT22;16814;52.118;11.436;2022-12-07T04:00:34;2.90;99.90
29571;DHT22;16814;52.118;11.436;2022-12-07T04:03:00;2.90;99.90
29571;DHT22;16814;52.118;11.436;2022-12-07T04:05:26;2.90;99.90
29571;DHT22;16814;52.118;11.436;2022-12-07T04:07:52;2.90;99.90
29571;DHT22;16814;52.118;11.436;2022-12-07T04:10:20;2.90;99.90
29571;DHT22;16814;52.118;11.436;2022-12-07T04:12:46;2.90;99.90
29571;DHT22;16814;52.118;11.436;2022-12-07T04:15:11;2.90;99.90
29571;DHT22;16814;52.118;11.436;2022-12-07T04:17:37;2.90;99.90
29571;DHT22;16814;52.118;11.436;2022-12-07T04:20:04;2.90;99.90
29571;DHT22;16814;52.118;11.436;2022-12-07T04:22:30;2.90;99.90
29571;DHT22;16814;52.118;11.436;2022-12-07T04:24:55;2.90;99.90
29571;DHT22;16814;52.118;11.436;2022-12-07T04:27:21;2.90;99.90
29571;DHT22;16814;52.118;11.436;2022-12-07T04:29:46;2.90;99.90
29571;DHT22;16814;52.118;11.436;2022-12-07T04:32:12;2.90;99.90
29571;DHT22;16814;52.118;11.436;2022-12-07T04:34:37;2.90;99.90
29571;DHT22;16814;52.118;11.436;2022-12-07T04:37:03;2.90;99.90
29571;DHT22;16814;52.118;11.436;2022-12-07T04:39:32;2.90;99.90
29571;DHT22;16814;52.118;11.436;2022-12-07T04:41:59;2.90;99.90
29571;DHT22;16814;52.118;11.436;2022-12-07T04:44:26;2.90;99.90
29571;DHT22;16814;52.118;11.436;2022-12-07T04:46:53;2.90;99.90
29571;DHT22;16814;52.118;11.436;2022-12-07T04:49:19;2.90;99.90
29571;DHT22;16814;52.118;11.436;2022-12-07T04:51:45;2.90;99.90
29571;DHT22;16814;52.118;11.436;2022-12-07T04:54:11;2.90;99.90
29571;DHT22;16814;52.118;11.436;2022-12-07T04:56:37;2.90;99.90
29571;DHT22;16814;52.118;11.436;2022-12-07T04:59:03;2.90;99.90
29571;DHT22;16814;52.118;11.436;2022-12-07T05:01:29;2.90;99.90
29571;DHT22;16814;52.118;11.436;2022-12-07T05:03:55;3.00;99.90
29571;DHT22;16814;52.118;11.436;2022-12-07T05:06:20;3.00;99.90
29571;DHT22;16814;52.118;11.436;2022-12-07T05:08:47;3.00;99.90
29571;DHT22;16814;52.118;11.436;2022-12-07T05:11:14;3.00;99.90
29571;DHT22;16814;52.118;11.436;2022-12-07T05:13:59;3.00;99.90
29571;DHT22;16814;52.118;11.436;2022-12-07T05:16:25;3.00;99.90
29571;DHT22;16814;52.118;11.436;2022-12-07T05:18:51;3.00;99.90
29571;DHT22;16814;52.118;11.436;2022-12-07T05:21:17;3.00;99.90
29571;DHT22;16814;52.118;11.436;2022-12-07T05:23:42;3.00;99.90
29571;DHT22;16814;52.118;11.436;2022-12-07T05:26:08;3.00;99.90
29571;DHT22;16814;52.118;11.436;2022-12-07T05:28:33;3.10;99.90
29571;DHT22;16814;52.118;11.436;2022-12-07T05:30:59;3.10;99.90
29571;DHT22;16814;52.118;11.436;2022-12-07T05:33:25;3.10;99.90
29571;DHT22;16814;52.118;11.436;2022-12-07T05:35:50;3.10;99.90
29571;DHT22;16814;52.118;11.436;2022-12-07T05:38:15;3.10;99.90
29571;DHT22;16814;52.118;11.436;2022-12-07T05:40:41;3.10;99.90
29571;DHT22;16814;52.118;11.436;2022-12-07T05:43:07;3.20;99.90
29571;DHT22;16814;52.118;11.436;2022-12-07T05:45:32;3.20;99.90
29571;DHT22;16814;52.118;11.436;2022-12-07T05:47:58;3.10;99.90
29571;DHT22;16814;52.118;11.436;2022-12-07T05:50:23;3.10;99.90
29571;DHT22;16814;52.118;11.436;2022-12-07T05:52:49;3.20;99.90
29571;DHT22;16814;52.118;11.436;2022-12-07T05:55:15;3.20;99.90
29571;DHT22;16814;52.118;11.436;2022-12-07T05:57:40;3.20;99.90
29571;DHT22;16814;52.118;11.436;2022-12-07T06:00:29;3.20;99.90
29571;DHT22;16814;52.118;11.436;2022-12-07T06:02:54;3.20;99.90
29571;DHT22;16814;52.118;11.436;2022-12-07T06:05:20;3.10;99.90
29571;DHT22;16814;52.118;11.436;2022-12-07T06:07:45;3.10;99.90
29571;DHT22;16814;52.118;11.436;2022-12-07T06:10:11;3.10;99.90
29571;DHT22;16814;52.118;11.436;2022-12-07T06:12:36;3.10;99.90
29571;DHT22;16814;52.118;11.436;2022-12-07T06:15:07;3.10;99.90
29571;DHT22;16814;52.118;11.436;2022-12-07T06:17:33;3.10;99.90
29571;DHT22;16814;52.118;11.436;2022-12-07T06:19:58;3.20;99.90
29571;DHT22;16814;52.118;11.436;2022-12-07T06:22:24;3.10;99.90
29571;DHT22;16814;52.118;11.436;2022-12-07T06:24:49;3.10;99.90
29571;DHT22;16814;52.118;11.436;2022-12-07T06:27:15;3.10;99.90
29571;DHT22;16814;52.118;11.436;2022-12-07T06:29:40;3.20;99.90
29571;DHT22;16814;52.118;11.436;2022-12-07T06:32:06;3.20;99.90
29571;DHT22;16814;52.118;11.436;2022-12-07T06:34:31;3.20;99.90
29571;DHT22;16814;52.118;11.436;2022-12-07T06:36:57;3.10;99.90
29571;DHT22;16814;52.118;11.436;2022-12-07T06:39:25;3.10;99.90
29571;DHT22;16814;52.118;11.436;2022-12-07T06:41:51;3.10;99.90
29571;DHT22;16814;52.118;11.436;2022-12-07T06:44:18;3.10;99.90
29571;DHT22;16814;52.118;11.436;2022-12-07T06:46:44;3.10;99.90
29571;DHT22;16814;52.118;11.436;2022-12-07T06:49:10;3.10;99.90
29571;DHT22;16814;52.118;11.436;2022-12-07T06:51:35;3.10;99.90
29571;DHT22;16814;52.118;11.436;2022-12-07T06:54:03;3.10;99.90
29571;DHT22;16814;52.118;11.436;2022-12-07T06:56:29;3.10;99.90
29571;DHT22;16814;52.118;11.436;2022-12-07T06:58:54;3.10;99.90
29571;DHT22;16814;52.118;11.436;2022-12-07T07:01:20;3.10;99.90
29571;DHT22;16814;52.118;11.436;2022-12-07T07:03:47;3.10;99.90
29571;DHT22;16814;52.118;11.436;2022-12-07T07:06:13;3.10;99.90
29571;DHT22;16814;52.118;11.436;2022-12-07T07:08:39;3.10;99.90
29571;DHT22;16814;52.118;11.436;2022-12-07T07:11:09;3.00;99.90
29571;DHT22;16814;52.118;11.436;2022-12-07T07:13:35;3.10;99.90
29571;DHT22;16814;52.118;11.436;2022-12-07T07:16:00;3.00;99.90
29571;DHT22;16814;52.118;11.436;2022-12-07T07:18:26;3.10;99.90
29571;DHT22;16814;52.118;11.436;2022-12-07T07:20:53;3.00;99.90
29571;DHT22;16814;52.118;11.436;2022-12-07T07:23:20;3.00;99.90
29571;DHT22;16814;52.118;11.436;2022-12-07T07:25:46;3.00;99.90
29571;DHT22;16814;52.118;11.436;2022-12-07T07:28:13;3.00;99.90
29571;DHT22;16814;52.118;11.436;2022-12-07T07:30:38;3.00;99.90
29571;DHT22;16814;52.118;11.436;2022-12-07T07:33:05;3.00;99.90
29571;DHT22;16814;52.118;11.436;2022-12-07T07:35:32;3.00;99.90
29571;DHT22;16814;52.118;11.436;2022-12-07T07:37:58;3.00;99.90
29571;DHT22;16814;52.118;11.436;2022-12-07T07:40:24;3.00;99.90
29571;DHT22;16814;52.118;11.436;2022-12-07T07:42:53;3.00;99.90
29571;DHT22;16814;52.118;11.436;2022-12-07T07:45:21;3.00;99.90
29571;DHT22;16814;52.118;11.436;2022-12-07T07:47:48;3.10;99.90
29571;DHT22;16814;52.118;11.436;2022-12-07T07:50:14;3.10;99.90
29571;DHT22;16814;52.118;11.436;2022-12-07T07:52:40;3.10;99.90
29571;DHT22;16814;52.118;11.436;2022-12-07T07:55:06;3.20;99.90
29571;DHT22;16814;52.118;11.436;2022-12-07T07:57:34;3.20;99.90
29571;DHT22;16814;52.118;11.436;2022-12-07T08:00:00;3.20;99.90
29571;DHT22;16814;52.118;11.436;2022-12-07T08:02:26;3.20;99.90
29571;DHT22;16814;52.118;11.436;2022-12-07T08:04:55;3.20;99.90
29571;DHT22;16814;52.118;11.436;2022-12-07T08:07:20;3.20;99.90
29571;DHT22;16814;52.118;11.436;2022-12-07T08:09:46;3.30;99.90
29571;DHT22;16814;52.118;11.436;2022-12-07T08:12:11;3.30;99.90
29571;DHT22;16814;52.118;11.436;2022-12-07T08:14:37;3.30;99.90
29571;DHT22;16814;52.118;11.436;2022-12-07T08:17:03;3.30;99.90
29571;DHT22;16814;52.118;11.436;2022-12-07T08:19:28;3.30;99.90
29571;DHT22;16814;52.118;11.436;2022-12-07T08:21:55;3.20;99.90
29571;DHT22;16814;52.118;11.436;2022-12-07T08:24:21;3.20;99.90
29571;DHT22;16814;52.118;11.436;2022-12-07T08:26:47;3.20;99.90
29571;DHT22;16814;52.118;11.436;2022-12-07T08:29:13;3.20;99.90
29571;DHT22;16814;52.118;11.436;2022-12-07T08:31:39;3.20;99.90
29571;DHT22;16814;52.118;11.436;2022-12-07T08:34:05;3.20;99.90
29571;DHT22;16814;52.118;11.436;2022-12-07T08:36:30;3.20;99.90
29571;DHT22;16814;52.118;11.436;2022-12-07T08:38:56;3.20;99.90
29571;DHT22;16814;52.118;11.436;2022-12-07T08:41:21;3.20;99.90
29571;DHT22;16814;52.118;11.436;2022-12-07T08:43:47;3.20;99.90
29571;DHT22;16814;52.118;11.436;2022-12-07T08:46:35;3.20;99.90
29571;DHT22;16814;52.118;11.436;2022-12-07T08:49:14;3.30;99.90
29571;DHT22;16814;52.118;11.436;2022-12-07T08:51:41;3.30;99.90
29571;DHT22;16814;52.118;11.436;2022-12-07T08:54:10;3.30;99.90
29571;DHT22;16814;52.118;11.436;2022-12-07T08:56:36;3.30;99.90
29571;DHT22;16814;52.118;11.436;2022-12-07T08:59:02;3.40;99.90
29571;DHT22;16814;52.118;11.436;2022-12-07T09:01:28;3.30;99.90
29571;DHT22;16814;52.118;11.436;2022-12-07T09:03:54;3.30;99.90
29571;DHT22;16814;52.118;11.436;2022-12-07T09:06:20;3.30;99.90
29571;DHT22;16814;52.118;11.436;2022-12-07T09:08:48;3.30;99.90
29571;DHT22;16814;52.118;11.436;2022-12-07T09:11:17;3.40;99.90
29571;DHT22;16814;52.118;11.436;2022-12-07T09:13:42;3.40;99.90
29571;DHT22;16814;52.118;11.436;2022-12-07T09:16:08;3.40;99.90
29571;DHT22;16814;52.118;11.436;2022-12-07T09:18:33;3.40;99.90
29571;DHT22;16814;52.118;11.436;2022-12-07T09:20:59;3.40;99.90
29571;DHT22;16814;52.118;11.436;2022-12-07T09:23:25;3.40;99.90
29571;DHT22;16814;52.118;11.436;2022-12-07T09:25:50;3.40;99.90
29571;DHT22;16814;52.118;11.436;2022-12-07T09:28:16;3.40;99.90
29571;DHT22;16814;52.118;11.436;2022-12-07T09:30:46;3.40;99.90
29571;DHT22;16814;52.118;11.436;2022-12-07T09:33:12;3.40;99.90
29571;DHT22;16814;52.118;11.436;2022-12-07T09:35:37;3.50;99.90
29571;DHT22;16814;52.118;11.436;2022-12-07T09:38:03;3.50;99.90
29571;DHT22;16814;52.118;11.436;2022-12-07T09:40:29;3.50;99.90
29571;DHT22;16814;52.118;11.436;2022-12-07T09:42:54;3.40;99.90
29571;DHT22;16814;52.118;11.436;2022-12-07T09:45:31;3.40;99.90
29571;DHT22;16814;52.118;11.436;2022-12-07T09:47:58;3.50;99.90
29571;DHT22;16814;52.118;11.436;2022-12-07T09:50:26;3.50;99.90
29571;DHT22;16814;52.118;11.436;2022-12-07T09:52:55;3.50;99.90
29571;DHT22;16814;52.118;11.436;2022-12-07T09:55:28;3.50;99.90
29571;DHT22;16814;52.118;11.436;2022-12-07T09:57:54;3.50;99.90
29571;DHT22;16814;52.118;11.436;2022-12-07T10:00:22;3.60;99.90
29571;DHT22;16814;52.118;11.436;2022-12-07T10:02:59;3.60;99.90
29571;DHT22;16814;52.118;11.436;2022-12-07T10:05:33;3.60;99.90
29571;DHT22;16814;52.118;11.436;2022-12-07T10:08:01;3.60;99.90
29571;DHT22;16814;52.118;11.436;2022-12-07T10:10:30;3.60;99.90
29571;DHT22;16814;52.118;11.436;2022-12-07T10:13:02;3.60;99.90
29571;DHT22;16814;52.118;11.436;2022-12-07T10:15:50;3.60;99.90
29571;DHT22;16814;52.118;11.436;2022-12-07T10:18:33;3.60;99.90
29571;DHT22;16814;52.118;11.436;2022-12-07T10:23:35;3.70;99.90
29571;DHT22;16814;52.118;11.436;2022-12-07T10:26:32;3.70;99.90
29571;DHT22;16814;52.118;11.436;2022-12-07T10:29:00;3.70;99.90
29571;DHT22;16814;52.118;11.436;2022-12-07T10:31:26;3.80;99.90
29571;DHT22;16814;52.118;11.436;2022-12-07T10:33:54;3.80;99.90
29571;DHT22;16814;52.118;11.436;2022-12-07T10:39:03;3.90;99.90
29571;DHT22;16814;52.118;11.436;2022-12-07T10:41:29;4.00;99.90
29571;DHT22;16814;52.118;11.436;2022-12-07T10:43:57;4.00;99.90
29571;DHT22;16814;52.118;11.436;2022-12-07T10:46:33;4.10;99.90
29571;DHT22;16814;52.118;11.436;2022-12-07T10:49:44;4.20;99.90
29571;DHT22;16814;52.118;11.436;2022-12-07T10:52:42;4.20;99.90
29571;DHT22;16814;52.118;11.436;2022-12-07T11:01:10;4.20;99.90
29571;DHT22;16814;52.118;11.436;2022-12-07T11:03:41;4.20;99.90
29571;DHT22;16814;52.118;11.436;2022-12-07T11:06:34;4.20;99.90
29571;DHT22;16814;52.118;11.436;2022-12-07T11:09:51;4.20;99.90
29571;DHT22;16814;52.118;11.436;2022-12-07T11:12:10;4.30;99.90
29571;DHT22;16814;52.118;11.436;2022-12-07T11:17:55;4.40;99.90
29571;DHT22;16814;52.118;11.436;2022-12-07T11:28:41;4.30;99.90
29571;DHT22;16814;52.118;11.436;2022-12-07T11:36:55;4.30;99.90
29571;DHT22;16814;52.118;11.436;2022-12-07T11:39:37;4.30;99.90
29571;DHT22;16814;52.118;11.436;2022-12-07T11:42:27;4.30;99.90
29571;DHT22;16814;52.118;11.436;2022-12-07T11:45:26;4.30;99.90
29571;DHT22;16814;52.118;11.436;2022-12-07T11:48:22;4.30;99.90
29571;DHT22;16814;52.118;11.436;2022-12-07T11:50:54;4.30;99.90
29571;DHT22;16814;52.118;11.436;2022-12-07T11:53:28;4.30;99.90
29571;DHT22;16814;52.118;11.436;2022-12-07T11:56:09;4.30;99.90
29571;DHT22;16814;52.118;11.436;2022-12-07T12:01:57;4.40;99.90
29571;DHT22;16814;52.118;11.436;2022-12-07T12:07:26;4.50;99.90
29571;DHT22;16814;52.118;11.436;2022-12-07T12:19:03;4.50;99.90
29571;DHT22;16814;52.118;11.436;2022-12-07T12:21:34;4.60;99.90
29571;DHT22;16814;52.118;11.436;2022-12-07T12:24:13;4.50;99.90
29571;DHT22;16814;52.118;11.436;2022-12-07T12:26:50;4.50;99.90
29571;DHT22;16814;52.118;11.436;2022-12-07T12:29:31;4.60;99.90
29571;DHT22;16814;52.118;11.436;2022-12-07T12:32:41;4.50;99.90
29571;DHT22;16814;52.118;11.436;2022-12-07T12:38:26;4.40;99.90
29571;DHT22;16814;52.118;11.436;2022-12-07T12:40:56;4.30;99.90
29571;DHT22;16814;52.118;11.436;2022-12-07T12:43:49;4.30;99.90
29571;DHT22;16814;52.118;11.436;2022-12-07T12:51:52;4.20;99.90
29571;DHT22;16814;52.118;11.436;2022-12-07T12:54:27;4.10;99.90
29571;DHT22;16814;52.118;11.436;2022-12-07T13:02:39;4.10;99.90
29571;DHT22;16814;52.118;11.436;2022-12-07T13:05:19;4.10;99.90
29571;DHT22;16814;52.118;11.436;2022-12-07T13:10:45;4.10;99.90
29571;DHT22;16814;52.118;11.436;2022-12-07T13:18:37;4.10;99.90
29571;DHT22;16814;52.118;11.436;2022-12-07T13:26:24;4.20;99.90
29571;DHT22;16814;52.118;11.436;2022-12-07T13:29:19;4.20;99.90
29571;DHT22;16814;52.118;11.436;2022-12-07T13:32:29;4.20;99.90
29571;DHT22;16814;52.118;11.436;2022-12-07T13:34:56;4.20;99.90
29571;DHT22;16814;52.118;11.436;2022-12-07T13:37:28;4.10;99.90
29571;DHT22;16814;52.118;11.436;2022-12-07T13:40:20;4.10;99.90
29571;DHT22;16814;52.118;11.436;2022-12-07T13:42:56;4.10;99.90
29571;DHT22;16814;52.118;11.436;2022-12-07T13:45:31;4.00;99.90
29571;DHT22;16814;52.118;11.436;2022-12-07T13:48:31;4.00;99.90
29571;DHT22;16814;52.118;11.436;2022-12-07T13:51:01;4.00;99.90
29571;DHT22;16814;52.118;11.436;2022-12-07T13:53:30;4.00;99.90
29571;DHT22;16814;52.118;11.436;2022-12-07T13:56:01;4.00;99.90
29571;DHT22;16814;52.118;11.436;2022-12-07T13:58:32;3.90;99.90
29571;DHT22;16814;52.118;11.436;2022-12-07T14:00:59;3.90;99.90
29571;DHT22;16814;52.118;11.436;2022-12-07T14:03:32;3.80;99.90
29571;DHT22;16814;52.118;11.436;2022-12-07T14:06:25;3.80;99.90
29571;DHT22;16814;52.118;11.436;2022-12-07T14:09:23;3.80;99.90
29571;DHT22;16814;52.118;11.436;2022-12-07T14:11:51;3.80;99.90
29571;DHT22;16814;52.118;11.436;2022-12-07T14:14:22;3.70;99.90
29571;DHT22;16814;52.118;11.436;2022-12-07T14:17:15;3.70;99.90
29571;DHT22;16814;52.118;11.436;2022-12-07T14:19:58;3.70;99.90
29571;DHT22;16814;52.118;11.436;2022-12-07T14:22:53;3.70;99.90
29571;DHT22;16814;52.118;11.436;2022-12-07T14:25:27;3.70;99.90
29571;DHT22;16814;52.118;11.436;2022-12-07T14:28:01;3.80;99.90
29571;DHT22;16814;52.118;11.436;2022-12-07T14:30:33;3.80;99.90
29571;DHT22;16814;52.118;11.436;2022-12-07T14:33:13;3.80;99.90
29571;DHT22;16814;52.118;11.436;2022-12-07T14:35:39;3.80;99.90
29571;DHT22;16814;52.118;11.436;2022-12-07T14:38:08;3.70;99.90
29571;DHT22;16814;52.118;11.436;2022-12-07T14:40:34;3.80;99.90
29571;DHT22;16814;52.118;11.436;2022-12-07T14:43:02;3.80;99.90
29571;DHT22;16814;52.118;11.436;2022-12-07T14:45:31;3.80;99.90
29571;DHT22;16814;52.118;11.436;2022-12-07T14:47:57;3.80;99.90
29571;DHT22;16814;52.118;11.436;2022-12-07T14:50:23;3.90;99.90
29571;DHT22;16814;52.118;11.436;2022-12-07T14:53:17;3.90;99.90
29571;DHT22;16814;52.118;11.436;2022-12-07T14:55:43;3.90;99.90
29571;DHT22;16814;52.118;11.436;2022-12-07T14:58:19;3.80;99.90
29571;DHT22;16814;52.118;11.436;2022-12-07T15:00:49;3.90;99.90
29571;DHT22;16814;52.118;11.436;2022-12-07T15:03:15;3.80;99.90
29571;DHT22;16814;52.118;11.436;2022-12-07T15:05:42;3.80;99.90
29571;DHT22;16814;52.118;11.436;2022-12-07T15:08:13;3.80;99.90
29571;DHT22;16814;52.118;11.436;2022-12-07T15:10:39;3.70;99.90
29571;DHT22;16814;52.118;11.436;2022-12-07T15:13:05;3.70;99.90
29571;DHT22;16814;52.118;11.436;2022-12-07T15:15:55;3.70;99.90
29571;DHT22;16814;52.118;11.436;2022-12-07T15:18:21;3.70;99.90
29571;DHT22;16814;52.118;11.436;2022-12-07T15:20:49;3.60;99.90
29571;DHT22;16814;52.118;11.436;2022-12-07T15:23:15;3.60;99.90
29571;DHT22;16814;52.118;11.436;2022-12-07T15:25:45;3.60;99.90
29571;DHT22;16814;52.118;11.436;2022-12-07T15:28:14;3.80;99.90
29571;DHT22;16814;52.118;11.436;2022-12-07T15:30:42;3.70;99.90
29571;DHT22;16814;52.118;11.436;2022-12-07T15:33:09;3.70;99.90
29571;DHT22;16814;52.118;11.436;2022-12-07T15:35:46;3.70;99.90
29571;DHT22;16814;52.118;11.436;2022-12-07T15:38:24;3.60;99.90
29571;DHT22;16814;52.118;11.436;2022-12-07T15:40:54;3.70;99.90
29571;DHT22;16814;52.118;11.436;2022-12-07T15:43:19;3.70;99.90
29571;DHT22;16814;52.118;11.436;2022-12-07T15:46:07;3.60;99.90
29571;DHT22;16814;52.118;11.436;2022-12-07T15:48:33;3.40;99.90
29571;DHT22;16814;52.118;11.436;2022-12-07T15:51:07;3.30;99.90
29571;DHT22;16814;52.118;11.436;2022-12-07T15:53:34;3.30;99.90
29571;DHT22;16814;52.118;11.436;2022-12-07T15:56:00;3.20;99.90
29571;DHT22;16814;52.118;11.436;2022-12-07T15:58:27;3.20;99.90
29571;DHT22;16814;52.118;11.436;2022-12-07T16:00:52;3.20;99.90
29571;DHT22;16814;52.118;11.436;2022-12-07T16:03:19;3.10;99.90
29571;DHT22;16814;52.118;11.436;2022-12-07T16:05:52;3.00;99.90
29571;DHT22;16814;52.118;11.436;2022-12-07T16:08:19;2.90;99.90
29571;DHT22;16814;52.118;11.436;2022-12-07T16:10:45;2.80;99.90
29571;DHT22;16814;52.118;11.436;2022-12-07T16:13:13;2.80;99.90
29571;DHT22;16814;52.118;11.436;2022-12-07T16:15:45;2.50;99.90
29571;DHT22;16814;52.118;11.436;2022-12-07T16:18:11;2.30;99.90
29571;DHT22;16814;52.118;11.436;2022-12-07T16:20:39;2.20;99.90
29571;DHT22;16814;52.118;11.436;2022-12-07T16:23:06;2.10;99.90
29571;DHT22;16814;52.118;11.436;2022-12-07T16:25:44;1.90;99.90
29571;DHT22;16814;52.118;11.436;2022-12-07T16:28:11;1.70;99.90
29571;DHT22;16814;52.118;11.436;2022-12-07T16:30:37;1.70;99.90
29571;DHT22;16814;52.118;11.436;2022-12-07T16:33:04;1.70;99.90
29571;DHT22;16814;52.118;11.436;2022-12-07T16:35:30;1.70;99.90
29571;DHT22;16814;52.118;11.436;2022-12-07T16:37:57;1.70;99.90
29571;DHT22;16814;52.118;11.436;2022-12-07T16:40:24;1.70;99.90
29571;DHT22;16814;52.118;11.436;2022-12-07T16:42:51;1.60;99.90
29571;DHT22;16814;52.118;11.436;2022-12-07T16:45:20;1.70;99.90
29571;DHT22;16814;52.118;11.436;2022-12-07T16:47:46;1.70;99.90
29571;DHT22;16814;52.118;11.436;2022-12-07T16:50:12;1.60;99.90
29571;DHT22;16814;52.118;11.436;2022-12-07T16:52:38;1.60;99.90
29571;DHT22;16814;52.118;11.436;2022-12-07T16:55:04;1.60;99.90
29571;DHT22;16814;52.118;11.436;2022-12-07T16:57:30;1.60;99.90
29571;DHT22;16814;52.118;11.436;2022-12-07T16:59:56;1.60;99.90
29571;DHT22;16814;52.118;11.436;2022-12-07T17:02:21;1.50;99.90
29571;DHT22;16814;52.118;11.436;2022-12-07T17:04:47;1.50;99.90
29571;DHT22;16814;52.118;11.436;2022-12-07T17:07:12;1.50;99.90
29571;DHT22;16814;52.118;11.436;2022-12-07T17:09:38;1.50;99.90
29571;DHT22;16814;52.118;11.436;2022-12-07T17:12:03;1.50;99.90
29571;DHT22;16814;52.118;11.436;2022-12-07T17:14:31;1.40;99.90
29571;DHT22;16814;52.118;11.436;2022-12-07T17:17:15;1.40;99.90
29571;DHT22;16814;52.118;11.436;2022-12-07T17:19:40;1.30;99.90
29571;DHT22;16814;52.118;11.436;2022-12-07T17:22:07;1.20;99.90
29571;DHT22;16814;52.118;11.436;2022-12-07T17:24:33;1.20;99.90
29571;DHT22;16814;52.118;11.436;2022-12-07T17:26:59;1.20;99.90
29571;DHT22;16814;52.118;11.436;2022-12-07T17:29:24;1.20;99.90
29571;DHT22;16814;52.118;11.436;2022-12-07T17:31:50;1.20;99.90